Time;durP1;ratioP1;P1;durP2;ratioP2;P2;SDS_P1;SDS_P2;PMS_P1;PMS_P2;Temp;Humidity;BMP_temperature;BMP_pressure;BME280_temperature;BME280_humidity;BME280_pressure;Samples;Min_cycle;Max_cycle;Signal;HPM_P1;HPM_P2
2021/04/07 00:00:20;;;;;;;8.00;6.53;;;0.20;99.90;;;;;;5014375;28;20668;-64
2021/04/07 00:02:46;;;;;;;7.68;6.72;;;0.20;99.90;;;;;;5014684;28;20401;-64
2021/04/07 00:05:14;;;;;;;6.17;5.77;;;0.20;99.90;;;;;;5014781;28;20192;-64
2021/04/07 00:07:42;;;;;;;8.00;6.82;;;0.10;99.90;;;;;;5014673;28;20173;-63
2021/04/07 00:10:10;;;;;;;6.22;5.72;;;0.10;99.90;;;;;;5014187;28;20798;-64
2021/04/07 00:12:36;;;;;;;7.97;7.15;;;0.20;99.90;;;;;;5014323;28;20232;-64
2021/04/07 00:15:03;;;;;;;6.90;6.30;;;0.10;99.90;;;;;;5014532;28;20601;-64
2021/04/07 00:17:29;;;;;;;7.40;6.70;;;0.20;99.90;;;;;;5014267;28;20172;-62
2021/04/07 00:19:54;;;;;;;5.63;5.23;;;0.20;99.90;;;;;;5013967;28;20185;-65
2021/04/07 00:22:20;;;;;;;5.83;5.43;;;0.20;99.90;;;;;;5014436;28;20189;-64
2021/04/07 00:24:45;;;;;;;8.10;6.37;;;0.20;99.90;;;;;;5014345;28;20542;-64
2021/04/07 00:27:13;;;;;;;7.17;6.53;;;0.30;99.90;;;;;;5014274;28;20177;-65
2021/04/07 00:29:38;;;;;;;7.28;6.68;;;0.10;99.90;;;;;;5013738;28;20193;-64
2021/04/07 00:32:04;;;;;;;9.57;7.30;;;0.10;99.90;;;;;;5014346;28;20192;-63
2021/04/07 00:34:32;;;;;;;8.00;6.30;;;0.10;99.90;;;;;;5014224;28;20236;-63
2021/04/07 00:36:58;;;;;;;7.25;6.55;;;0.20;99.90;;;;;;5014219;28;20408;-64
2021/04/07 00:39:23;;;;;;;7.30;6.73;;;0.10;99.90;;;;;;5013507;28;20280;-63
2021/04/07 00:41:49;;;;;;;6.70;6.13;;;0.00;99.90;;;;;;5013803;28;20216;-65
2021/04/07 00:44:14;;;;;;;7.00;6.40;;;0.10;99.90;;;;;;5014015;28;20661;-65
2021/04/07 00:46:40;;;;;;;7.30;6.27;;;0.20;99.90;;;;;;5014061;28;20244;-63
2021/04/07 00:49:05;;;;;;;9.13;6.23;;;0.20;99.90;;;;;;5013522;28;20220;-64
2021/04/07 00:51:31;;;;;;;9.10;5.97;;;0.10;99.90;;;;;;5013685;28;20177;-65
2021/04/07 00:53:57;;;;;;;7.60;6.40;;;0.00;99.90;;;;;;5013777;28;20169;-64
2021/04/07 00:56:23;;;;;;;6.00;5.50;;;-0.10;99.90;;;;;;5013738;28;20169;-63
2021/04/07 00:58:48;;;;;;;6.70;5.67;;;0.00;99.90;;;;;;5013249;28;20199;-64
2021/04/07 01:01:14;;;;;;;6.60;4.87;;;-0.10;99.90;;;;;;5013632;28;20200;-64
2021/04/07 01:03:39;;;;;;;5.63;5.27;;;-0.10;99.90;;;;;;5013596;28;20203;-63
2021/04/07 01:06:05;;;;;;;6.67;5.63;;;-0.10;99.90;;;;;;5012380;28;20593;-65
2021/04/07 01:08:31;;;;;;;5.70;5.30;;;-0.20;99.90;;;;;;5013078;28;20556;-65
2021/04/07 01:10:56;;;;;;;6.43;5.83;;;-0.20;99.90;;;;;;5013459;28;20173;-64
2021/04/07 01:13:22;;;;;;;5.50;5.00;;;-0.30;99.90;;;;;;5013370;28;20560;-65
2021/04/07 01:15:48;;;;;;;5.57;5.27;;;-0.20;99.90;;;;;;5013138;28;20235;-65
2021/04/07 01:18:13;;;;;;;5.70;5.30;;;0.20;99.90;;;;;;5012876;28;20173;-64
2021/04/07 01:20:39;;;;;;;5.27;4.87;;;-0.20;99.90;;;;;;5013289;28;20172;-64
2021/04/07 01:23:05;;;;;;;6.40;5.87;;;-0.20;99.90;;;;;;5012597;28;20176;-64
2021/04/07 01:25:31;;;;;;;6.53;6.03;;;-0.30;99.90;;;;;;5013106;28;20177;-65
2021/04/07 01:27:56;;;;;;;6.00;5.57;;;-0.30;99.90;;;;;;5013072;28;20253;-65
2021/04/07 01:30:23;;;;;;;7.97;7.17;;;-0.40;99.90;;;;;;5012682;28;20551;-64
2021/04/07 01:32:48;;;;;;;6.60;6.10;;;-0.30;99.90;;;;;;5012959;28;20456;-64
2021/04/07 01:35:16;;;;;;;6.20;5.70;;;-0.30;99.90;;;;;;5013185;28;20179;-64
2021/04/07 01:37:42;;;;;;;7.70;6.90;;;-0.40;99.90;;;;;;5012977;28;20220;-64
2021/04/07 01:40:10;;;;;;;7.40;6.13;;;-0.30;99.90;;;;;;5012559;28;20606;-65
2021/04/07 01:42:36;;;;;;;8.40;6.03;;;-0.30;99.90;;;;;;5012768;28;20193;-65
2021/04/07 01:45:06;;;;;;;7.67;6.67;;;-0.20;99.90;;;;;;5012682;28;20180;-64
2021/04/07 01:47:33;;;;;;;7.28;6.68;;;-0.30;99.90;;;;;;5012853;28;20402;-64
2021/04/07 01:50:04;;;;;;;7.55;6.85;;;-0.30;99.90;;;;;;5012343;28;20267;-64
2021/04/07 01:52:30;;;;;;;8.18;6.55;;;-0.20;99.90;;;;;;5012801;28;20229;-65
2021/04/07 01:54:56;;;;;;;18.47;7.10;;;-0.30;99.90;;;;;;5012606;28;20212;-65
2021/04/07 01:57:22;;;;;;;9.57;6.57;;;-0.30;99.90;;;;;;5012572;28;20173;-64
2021/04/07 01:59:48;;;;;;;8.30;7.70;;;-0.20;99.90;;;;;;5011981;28;20224;-65
2021/04/07 02:02:13;;;;;;;7.43;6.90;;;-0.20;99.90;;;;;;5012571;28;20203;-65
2021/04/07 02:04:40;;;;;;;15.77;11.00;;;-0.20;99.90;;;;;;5012558;28;20164;-65
2021/04/07 02:07:14;;;;;;;12.32;9.48;;;-0.20;99.90;;;;;;5012529;28;20193;-63
2021/04/07 02:09:41;;;;;;;9.57;8.63;;;-0.20;99.90;;;;;;5011949;28;20562;-65
2021/04/07 02:12:07;;;;;;;10.60;9.70;;;-0.20;99.90;;;;;;5012232;28;20197;-64
2021/04/07 02:14:32;;;;;;;9.80;8.80;;;-0.30;99.90;;;;;;5012429;28;20169;-64
2021/04/07 02:17:04;;;;;;;13.07;8.23;;;-0.30;99.90;;;;;;5012425;28;20583;-65
2021/04/07 02:19:31;;;;;;;10.80;8.05;;;-0.30;99.90;;;;;;5011853;28;20176;-65
2021/04/07 02:22:12;;;;;;;10.35;9.48;;;-0.40;99.90;;;;;;5012946;28;20637;-64
2021/04/07 02:24:45;;;;;;;8.82;8.10;;;-0.20;99.90;;;;;;5012119;28;20171;-64
2021/04/07 02:27:17;;;;;;;22.63;13.02;;;-0.20;99.90;;;;;;5012279;28;20683;-64
2021/04/07 02:29:44;;;;;;;15.95;10.13;;;-0.20;99.90;;;;;;5011814;28;20628;-63
2021/04/07 02:32:10;;;;;;;8.50;7.72;;;-0.20;99.90;;;;;;5011989;28;20191;-65
2021/04/07 02:34:36;;;;;;;11.00;9.30;;;-0.40;99.90;;;;;;5012185;28;20173;-64
2021/04/07 02:37:03;;;;;;;7.97;7.38;;;-0.40;99.90;;;;;;5011886;28;20645;-63
2021/04/07 02:39:29;;;;;;;11.27;9.32;;;-0.40;99.90;;;;;;5011573;28;20189;-64
2021/04/07 02:41:54;;;;;;;20.33;10.67;;;-0.40;99.90;;;;;;5011894;28;20195;-64
2021/04/07 02:44:20;;;;;;;14.10;10.60;;;-0.40;99.90;;;;;;5012100;28;20494;-64
2021/04/07 02:46:46;;;;;;;9.10;7.37;;;-0.30;99.90;;;;;;5011975;28;20173;-64
2021/04/07 02:49:12;;;;;;;12.67;8.40;;;-0.40;99.90;;;;;;5011598;28;20213;-64
2021/04/07 02:51:37;;;;;;;20.03;11.80;;;-0.30;99.90;;;;;;5011597;28;20491;-64
2021/04/07 02:54:03;;;;;;;19.47;10.10;;;-0.30;99.90;;;;;;5011984;28;20175;-64
2021/04/07 02:56:30;;;;;;;13.75;9.68;;;-0.30;99.90;;;;;;5012054;28;20260;-65
2021/04/07 02:58:56;;;;;;;32.05;15.90;;;-0.40;99.90;;;;;;5011450;28;20193;-64
2021/04/07 03:01:22;;;;;;;13.55;10.80;;;-0.40;99.90;;;;;;5011897;28;20168;-64
2021/04/07 03:03:47;;;;;;;14.43;9.23;;;-0.40;99.90;;;;;;5011797;28;20236;-64
2021/04/07 03:06:13;;;;;;;9.80;8.80;;;-0.40;99.90;;;;;;5011703;28;20183;-64
2021/04/07 03:08:38;;;;;;;7.83;6.63;;;-0.40;99.90;;;;;;5011453;28;20236;-63
2021/04/07 03:11:04;;;;;;;7.50;6.70;;;-0.40;99.90;;;;;;5011769;28;20633;-64
2021/04/07 03:13:29;;;;;;;7.33;6.63;;;-0.40;99.90;;;;;;5011534;28;20204;-64
2021/04/07 03:15:55;;;;;;;26.63;15.13;;;-0.30;99.90;;;;;;5011707;28;20209;-64
2021/04/07 03:18:21;;;;;;;52.23;28.80;;;-0.40;99.90;;;;;;5011316;28;20201;-64
2021/04/07 03:20:47;;;;;;;19.77;14.48;;;-0.30;99.90;;;;;;5011903;28;20708;-64
2021/04/07 03:23:12;;;;;;;12.17;8.73;;;-0.30;99.90;;;;;;5011625;28;20169;-64
2021/04/07 03:25:38;;;;;;;12.67;9.10;;;-0.30;99.90;;;;;;5011546;28;20169;-64
2021/04/07 03:28:04;;;;;;;7.73;7.17;;;-0.20;99.90;;;;;;5011494;28;20224;-64
2021/04/07 03:30:48;;;;;;;10.80;8.40;;;-0.30;99.90;;;;;;5011391;28;20176;-65
2021/04/07 03:33:15;;;;;;;8.05;7.35;;;-0.30;99.90;;;;;;5011464;28;20941;-64
2021/04/07 03:35:41;;;;;;;7.53;6.38;;;-0.30;99.90;;;;;;5011697;28;20169;-64
2021/04/07 03:38:06;;;;;;;10.33;7.40;;;-0.40;99.90;;;;;;5011150;28;20637;-64
2021/04/07 03:40:32;;;;;;;7.33;6.63;;;-0.30;99.90;;;;;;5011484;28;20595;-65
2021/04/07 03:42:57;;;;;;;8.57;6.83;;;-0.30;99.90;;;;;;5011417;28;20267;-65
2021/04/07 03:45:23;;;;;;;10.47;8.17;;;-0.40;99.90;;;;;;5011539;28;20512;-64
2021/04/07 03:47:48;;;;;;;9.60;7.50;;;-0.40;99.90;;;;;;5014165;28;20648;-65
2021/04/07 03:50:14;;;;;;;9.73;7.60;;;-0.30;99.90;;;;;;5014609;28;20207;-64
2021/04/07 03:52:39;;;;;;;7.70;7.00;;;-0.40;99.90;;;;;;5015045;28;20632;-62
2021/04/07 03:55:05;;;;;;;8.93;8.00;;;-0.30;99.90;;;;;;5014909;28;20235;-64
2021/04/07 03:57:31;;;;;;;9.07;6.78;;;-0.30;99.90;;;;;;5014913;28;20590;-65
2021/04/07 03:59:56;;;;;;;10.97;7.47;;;-0.30;99.90;;;;;;5014415;28;20188;-64
2021/04/07 04:02:22;;;;;;;9.87;5.87;;;-0.40;99.90;;;;;;5015044;28;20252;-64
2021/04/07 04:04:47;;;;;;;6.50;6.00;;;-0.40;99.90;;;;;;5014655;28;20244;-65
2021/04/07 04:07:14;;;;;;;5.82;5.38;;;-0.40;99.90;;;;;;5014853;28;20232;-64
2021/04/07 04:09:39;;;;;;;4.90;4.60;;;-0.40;99.90;;;;;;5014091;28;20259;-64
2021/04/07 04:12:05;;;;;;;6.37;5.77;;;-0.40;99.90;;;;;;5014570;28;20196;-64
2021/04/07 04:14:31;;;;;;;7.57;5.50;;;-0.40;99.90;;;;;;5014552;28;20161;-65
2021/04/07 04:16:56;;;;;;;5.60;5.10;;;-0.50;99.90;;;;;;5014552;28;20652;-64
2021/04/07 04:19:22;;;;;;;6.20;5.80;;;-0.40;99.90;;;;;;5013954;28;20250;-64
2021/04/07 04:21:47;;;;;;;5.13;4.73;;;-0.50;99.90;;;;;;5014291;28;20611;-62
2021/04/07 04:24:13;;;;;;;5.60;5.20;;;-0.50;99.90;;;;;;5014636;28;20606;-65
2021/04/07 04:26:39;;;;;;;6.95;6.20;;;-0.60;99.90;;;;;;5014319;28;20219;-64
2021/04/07 04:29:05;;;;;;;6.20;5.70;;;-0.60;99.90;;;;;;5013856;28;20215;-64
2021/04/07 04:31:31;;;;;;;6.37;5.90;;;-0.60;99.90;;;;;;5014080;28;20169;-64
2021/04/07 04:33:56;;;;;;;6.72;6.00;;;-0.50;99.90;;;;;;5014336;28;20208;-62
2021/04/07 04:36:22;;;;;;;7.30;6.60;;;-0.70;99.90;;;;;;5014229;28;20168;-62
2021/04/07 04:38:47;;;;;;;6.93;6.37;;;-0.70;99.90;;;;;;5013704;28;20181;-63
2021/04/07 04:41:13;;;;;;;7.13;6.53;;;-0.70;99.90;;;;;;5014054;28;20552;-63
2021/04/07 04:43:38;;;;;;;7.70;6.93;;;-0.60;99.90;;;;;;5013999;28;20231;-64
2021/04/07 04:46:04;;;;;;;8.00;6.47;;;-0.70;99.90;;;;;;5013912;28;20248;-63
2021/04/07 04:48:29;;;;;;;7.10;6.30;;;-0.60;99.90;;;;;;5013465;28;20269;-63
2021/04/07 04:50:55;;;;;;;8.60;6.33;;;-0.60;99.90;;;;;;5013809;28;20169;-65
2021/04/07 04:53:20;;;;;;;8.03;6.97;;;-0.60;99.90;;;;;;5013804;28;20193;-62
2021/04/07 04:55:46;;;;;;;5.80;5.30;;;-0.60;99.90;;;;;;5013716;28;20181;-64
2021/04/07 04:58:11;;;;;;;5.33;4.60;;;-0.20;99.90;;;;;;5012378;28;20216;-64
2021/04/07 05:00:37;;;;;;;5.73;5.33;;;-0.60;99.90;;;;;;5013633;28;20173;-63
2021/04/07 05:03:03;;;;;;;4.60;4.30;;;-0.70;99.90;;;;;;5013609;28;20168;-64
2021/04/07 05:05:28;;;;;;;11.20;5.13;;;-0.60;99.90;;;;;;5013512;28;20173;-64
2021/04/07 05:07:54;;;;;;;5.07;4.57;;;-0.60;99.90;;;;;;5013426;28;20216;-62
2021/04/07 05:10:19;;;;;;;4.37;4.07;;;-0.70;99.90;;;;;;5013252;28;20566;-62
2021/04/07 05:12:45;;;;;;;5.20;4.90;;;-0.70;99.90;;;;;;5013420;28;20203;-64
2021/04/07 05:15:11;;;;;;;5.10;4.43;;;-0.60;99.90;;;;;;5013424;28;20165;-64
2021/04/07 05:17:37;;;;;;;5.80;4.68;;;-0.60;99.90;;;;;;5013174;28;20596;-64
2021/04/07 05:20:04;;;;;;;9.13;4.10;;;-0.50;99.90;;;;;;5012989;28;20279;-63
2021/04/07 05:22:30;;;;;;;5.03;4.45;;;-0.60;99.90;;;;;;5013295;28;20169;-60
2021/04/07 05:24:56;;;;;;;5.13;4.77;;;-0.50;99.90;;;;;;5013646;28;20227;-64
2021/04/07 05:27:21;;;;;;;4.50;3.80;;;-0.50;99.90;;;;;;5013213;28;20177;-62
2021/04/07 05:29:47;;;;;;;5.30;4.80;;;-0.50;99.90;;;;;;5012612;28;20197;-63
2021/04/07 05:32:13;;;;;;;10.63;4.70;;;-0.50;99.90;;;;;;5012922;28;20204;-64
2021/04/07 05:34:38;;;;;;;5.93;4.73;;;-0.50;99.90;;;;;;5013099;28;20655;-64
2021/04/07 05:37:04;;;;;;;4.47;4.07;;;-0.40;99.90;;;;;;5013073;28;20169;-64
2021/04/07 05:39:29;;;;;;;10.03;5.17;;;-0.40;99.90;;;;;;5012421;28;20275;-64
2021/04/07 05:41:55;;;;;;;5.10;4.37;;;-0.40;99.90;;;;;;5012928;28;20336;-64
2021/04/07 05:44:21;;;;;;;7.63;4.60;;;0.10;99.90;;;;;;5012924;28;20177;-64
2021/04/07 05:46:46;;;;;;;4.73;4.43;;;-0.40;99.90;;;;;;5012776;28;20655;-64
2021/04/07 05:49:12;;;;;;;5.70;5.20;;;-0.40;99.90;;;;;;5012513;28;20546;-62
2021/04/07 05:51:38;;;;;;;7.87;4.50;;;-0.40;99.90;;;;;;5012680;28;20186;-63
2021/04/07 05:54:03;;;;;;;5.97;4.80;;;-0.40;99.90;;;;;;5012751;28;20252;-64
2021/04/07 05:56:29;;;;;;;4.93;4.43;;;-0.30;99.90;;;;;;5012770;28;20172;-64
2021/04/07 05:58:54;;;;;;;4.80;4.40;;;-0.30;99.90;;;;;;5011559;28;20255;-67
2021/04/07 06:01:20;;;;;;;12.00;5.60;;;-0.20;99.90;;;;;;5011300;28;20200;-66
2021/04/07 06:03:46;;;;;;;7.03;4.03;;;-0.10;99.90;;;;;;5011221;28;20235;-66
2021/04/07 06:06:11;;;;;;;7.70;4.80;;;-0.20;99.90;;;;;;5011438;28;20181;-69
2021/04/07 06:08:37;;;;;;;4.97;4.13;;;-0.20;99.90;;;;;;5010953;28;20220;-65
2021/04/07 06:11:02;;;;;;;6.13;4.20;;;-0.20;99.90;;;;;;5010613;28;20597;-66
2021/04/07 06:13:28;;;;;;;4.87;4.43;;;-0.20;99.90;;;;;;5012449;28;20212;-65
2021/04/07 06:15:54;;;;;;;10.00;4.20;;;-0.20;99.90;;;;;;5012294;28;20176;-65
2021/04/07 06:18:19;;;;;;;7.33;4.27;;;-0.20;99.90;;;;;;5011974;28;20177;-66
2021/04/07 06:20:47;;;;;;;4.30;4.00;;;-0.30;99.90;;;;;;5012448;28;20196;-66
2021/04/07 06:23:14;;;;;;;3.58;3.38;;;-0.30;99.90;;;;;;5012463;28;20238;-66
2021/04/07 06:25:41;;;;;;;3.83;3.47;;;-0.30;99.90;;;;;;5012334;28;20175;-65
2021/04/07 06:28:08;;;;;;;4.13;3.75;;;-0.20;99.90;;;;;;5012025;28;20816;-66
2021/04/07 06:30:45;;;;;;;8.88;3.33;;;-0.20;99.90;;;;;;5012103;28;20176;-63
2021/04/07 06:33:26;;;;;;;3.75;3.40;;;-0.20;99.90;;;;;;5012172;28;20287;-63
2021/04/07 06:36:18;;;;;;;4.80;4.30;;;-0.20;99.90;;;;;;5012125;28;20165;-64
2021/04/07 06:38:44;;;;;;;9.10;4.28;;;-0.10;99.90;;;;;;5010417;28;20609;-65
2021/04/07 06:41:10;;;;;;;4.70;3.73;;;-0.20;99.90;;;;;;5012204;28;20189;-65
2021/04/07 06:43:35;;;;;;;4.33;3.30;;;-0.20;99.90;;;;;;5012099;28;20199;-65
2021/04/07 06:46:02;;;;;;;3.93;3.63;;;-0.20;99.90;;;;;;5012167;28;20185;-64
2021/04/07 06:48:29;;;;;;;4.05;3.70;;;-0.20;99.90;;;;;;5011617;28;20189;-64
2021/04/07 06:50:55;;;;;;;4.60;3.70;;;-0.20;99.90;;;;;;5012068;28;20231;-64
2021/04/07 06:53:26;;;;;;;4.35;3.95;;;-0.30;99.90;;;;;;5011804;28;20204;-64
2021/04/07 06:55:52;;;;;;;8.05;4.45;;;-0.40;99.90;;;;;;5011918;28;20169;-64
2021/04/07 06:58:17;;;;;;;5.65;4.30;;;-0.40;99.90;;;;;;5011513;28;20185;-64
2021/04/07 07:00:43;;;;;;;3.50;3.30;;;-0.20;99.90;;;;;;5011920;28;20212;-64
2021/04/07 07:03:10;;;;;;;5.43;3.05;;;-0.50;99.90;;;;;;5011946;28;20169;-64
2021/04/07 07:05:41;;;;;;;4.43;4.07;;;-0.10;99.90;;;;;;5011912;28;20228;-64
2021/04/07 07:08:11;;;;;;;4.15;3.75;;;-0.20;99.90;;;;;;5011583;28;20181;-64
2021/04/07 07:10:45;;;;;;;6.93;5.75;;;-0.20;99.90;;;;;;5011874;28;20188;-66
2021/04/07 07:13:18;;;;;;;3.60;3.30;;;-0.20;99.90;;;;;;5011799;28;20200;-64
2021/04/07 07:15:44;;;;;;;3.75;3.50;;;-0.20;99.90;;;;;;5011823;28;20248;-65
2021/04/07 07:18:18;;;;;;;3.65;3.45;;;-0.20;99.90;;;;;;5011401;28;20253;-65
2021/04/07 07:20:43;;;;;;;2.97;2.78;;;-0.20;99.90;;;;;;5011787;28;20254;-64
2021/04/07 07:23:21;;;;;;;3.73;3.47;;;-0.10;99.90;;;;;;5015607;28;20585;-64
2021/04/07 07:25:57;;;;;;;4.93;3.63;;;-0.60;99.90;;;;;;5015661;28;20196;-64
2021/04/07 07:28:23;;;;;;;5.72;3.25;;;-0.20;99.90;;;;;;5015170;28;20537;-64
2021/04/07 07:30:49;;;;;;;3.30;3.20;;;-0.20;99.90;;;;;;5015363;28;20169;-61
2021/04/07 07:33:17;;;;;;;3.10;2.90;;;-0.20;99.90;;;;;;5015456;28;20577;-63
2021/04/07 07:35:43;;;;;;;2.85;2.75;;;-0.20;99.90;;;;;;5015436;28;20226;-64
2021/04/07 07:38:09;;;;;;;3.70;3.50;;;-0.20;99.90;;;;;;5015078;28;20207;-64
2021/04/07 07:40:34;;;;;;;4.00;3.80;;;-0.30;99.90;;;;;;5015125;28;20200;-65
2021/04/07 07:43:00;;;;;;;2.80;2.70;;;-0.40;99.90;;;;;;5015323;28;20204;-63
2021/04/07 07:45:34;;;;;;;4.30;3.50;;;-0.40;99.90;;;;;;5015092;28;20174;-64
2021/04/07 07:48:18;;;;;;;4.35;4.05;;;-0.40;99.90;;;;;;5015248;28;20184;-64
2021/04/07 07:50:46;;;;;;;4.35;3.95;;;-0.30;99.90;;;;;;5015216;28;20212;-64
2021/04/07 07:53:20;;;;;;;12.52;5.63;;;-0.40;99.90;;;;;;5015099;28;20621;-63
2021/04/07 07:55:51;;;;;;;4.05;3.75;;;-0.60;99.90;;;;;;5014915;28;20203;-62
2021/04/07 07:58:18;;;;;;;3.13;3.03;;;-0.50;99.90;;;;;;5014708;28;20172;-63
2021/04/07 08:00:43;;;;;;;2.60;2.50;;;-0.60;99.90;;;;;;5014850;28;20255;-66
2021/04/07 08:03:11;;;;;;;8.07;4.10;;;-0.50;99.90;;;;;;5015051;28;20263;-62
2021/04/07 08:05:38;;;;;;;4.47;3.25;;;-0.50;99.90;;;;;;5014915;28;20916;-61
2021/04/07 08:08:05;;;;;;;4.03;3.78;;;-0.70;99.90;;;;;;5014539;28;20180;-61
2021/04/07 08:10:32;;;;;;;4.43;3.85;;;-0.40;99.90;;;;;;5014469;28;20229;-62
2021/04/07 08:13:00;;;;;;;4.38;3.15;;;-0.50;99.90;;;;;;5014586;28;20202;-62
2021/04/07 08:15:29;;;;;;;7.75;3.40;;;-0.40;99.90;;;;;;5014778;28;20176;-59
2021/04/07 08:17:54;;;;;;;4.07;3.83;;;-0.40;99.90;;;;;;5014583;28;20173;-62
2021/04/07 08:20:21;;;;;;;3.73;3.43;;;-0.40;99.90;;;;;;5014241;28;20274;-61
2021/04/07 08:22:48;;;;;;;3.03;2.92;;;-0.40;99.90;;;;;;5016216;28;20173;-60
2021/04/07 08:25:15;;;;;;;3.78;3.47;;;-0.40;99.90;;;;;;5016487;28;20175;-60
2021/04/07 08:27:42;;;;;;;8.60;3.85;;;-0.40;99.90;;;;;;5016247;28;20196;-60
2021/04/07 08:30:08;;;;;;;6.53;5.95;;;-0.40;99.90;;;;;;5015161;28;20203;-63
2021/04/07 08:32:36;;;;;;;4.55;4.18;;;-0.40;99.90;;;;;;5014409;28;20193;-67
2021/04/07 08:35:04;;;;;;;6.57;4.40;;;-0.40;99.90;;;;;;5014285;28;20185;-64
2021/04/07 08:37:31;;;;;;;4.68;4.00;;;-0.30;99.90;;;;;;5014024;28;20223;-65
2021/04/07 08:40:15;;;;;;;4.07;3.67;;;0.60;99.90;;;;;;5013777;28;20718;-66
2021/04/07 08:42:41;;;;;;;4.50;4.15;;;0.10;99.90;;;;;;5014100;28;20198;-71
2021/04/07 08:45:10;;;;;;;4.55;4.25;;;0.00;99.90;;;;;;5014110;28;20252;-61
2021/04/07 08:47:44;;;;;;;3.75;3.53;;;0.00;99.90;;;;;;5014010;28;20171;-64
2021/04/07 08:50:12;;;;;;;5.72;4.15;;;0.00;99.90;;;;;;5013816;28;20745;-62
2021/04/07 08:52:48;;;;;;;3.30;2.90;;;0.00;99.90;;;;;;5014172;28;20196;-63
2021/04/07 08:55:14;;;;;;;7.00;4.32;;;;;;;;;;5014470;28;20161;-60
2021/04/07 08:57:40;;;;;;;4.30;3.92;;;-0.40;99.90;;;;;;5014477;28;20727;-63
2021/04/07 09:00:13;;;;;;;3.80;3.60;;;-0.20;99.90;;;;;;5014105;28;20288;-67
2021/04/07 09:02:53;;;;;;;5.43;4.28;;;-0.20;99.90;;;;;;5013992;28;20172;-66
2021/04/07 09:05:34;;;;;;;8.23;4.43;;;-0.50;99.90;;;;;;5014138;28;20211;-64
2021/04/07 09:08:01;;;;;;;9.48;4.68;;;0.00;99.90;;;;;;5015048;28;20190;-64
2021/04/07 09:10:37;;;;;;;5.63;4.90;;;0.10;99.90;;;;;;5014909;28;20271;-64
2021/04/07 09:13:07;;;;;;;5.28;4.57;;;0.30;99.90;;;;;;5013575;28;20588;-64
2021/04/07 09:15:33;;;;;;;6.80;5.03;;;0.10;99.90;;;;;;5013902;28;20169;-63
2021/04/07 09:17:58;;;;;;;5.27;4.63;;;0.40;99.90;;;;;;5013528;28;20180;-64
2021/04/07 09:20:42;;;;;;;4.33;4.07;;;0.20;99.90;;;;;;5013316;28;20189;-61
2021/04/07 09:23:17;;;;;;;4.80;3.83;;;0.30;99.90;;;;;;5013331;28;20442;-64
2021/04/07 09:25:48;;;;;;;5.00;4.55;;;0.40;99.90;;;;;;5013764;28;20187;-61
2021/04/07 09:28:14;;;;;;;3.63;3.33;;;0.40;99.90;;;;;;5013174;28;20177;-71
2021/04/07 09:30:45;;;;;;;4.23;3.83;;;0.50;99.90;;;;;;5014436;28;20645;-64
2021/04/07 09:33:10;;;;;;;4.85;4.45;;;0.70;99.90;;;;;;5014233;28;20451;-65
2021/04/07 09:35:37;;;;;;;4.40;4.10;;;0.60;99.90;;;;;;5014878;28;20162;-65
2021/04/07 09:38:04;;;;;;;5.18;4.75;;;0.50;99.90;;;;;;5014421;28;20494;-65
2021/04/07 09:40:29;;;;;;;3.90;3.60;;;0.50;99.90;;;;;;5014372;28;20165;-65
2021/04/07 09:42:55;;;;;;;5.83;4.00;;;0.30;99.90;;;;;;5014027;28;20192;-65
2021/04/07 09:45:26;;;;;;;3.80;3.50;;;0.30;99.90;;;;;;5013283;28;20191;-65
2021/04/07 09:47:55;;;;;;;4.28;3.97;;;0.30;99.90;;;;;;5014504;28;20180;-64
2021/04/07 09:50:27;;;;;;;5.03;3.92;;;0.40;99.90;;;;;;5013308;28;20200;-65
2021/04/07 09:52:52;;;;;;;3.75;3.55;;;0.50;99.90;;;;;;5014339;28;20227;-65
2021/04/07 09:55:24;;;;;;;5.53;3.47;;;0.40;99.90;;;;;;5013042;28;20171;-66
2021/04/07 09:58:01;;;;;;;5.00;3.97;;;0.40;99.90;;;;;;5013860;28;20192;-66
2021/04/07 10:00:31;;;;;;;4.65;4.32;;;0.40;99.90;;;;;;5013211;28;20232;-63
2021/04/07 10:02:57;;;;;;;5.50;4.47;;;0.40;99.90;;;;;;5014174;28;20169;-65
2021/04/07 10:05:27;;;;;;;14.03;4.80;;;0.30;99.90;;;;;;5013369;28;20181;-65
2021/04/07 10:07:59;;;;;;;10.82;5.40;;;0.40;99.90;;;;;;5013178;28;20414;-65
2021/04/07 10:10:26;;;;;;;4.50;4.15;;;0.50;99.90;;;;;;5013182;28;20290;-65
2021/04/07 10:12:51;;;;;;;5.25;4.85;;;0.60;99.90;;;;;;5013106;28;20235;-64
2021/04/07 10:15:18;;;;;;;4.40;4.10;;;0.60;99.90;;;;;;5012895;28;20205;-64
2021/04/07 10:17:44;;;;;;;5.20;4.47;;;0.70;99.90;;;;;;5012815;28;20199;-64
2021/04/07 10:20:12;;;;;;;5.27;4.87;;;0.70;99.90;;;;;;5012503;28;20227;-64
2021/04/07 10:22:38;;;;;;;6.00;5.18;;;0.70;99.90;;;;;;5012724;28;20166;-65
2021/04/07 10:25:26;;;;;;;5.82;4.88;;;0.60;99.90;;;;;;5012572;28;20177;-63
2021/04/07 10:27:52;;;;;;;6.00;5.22;;;0.60;99.90;;;;;;5011409;28;20181;-65
2021/04/07 10:30:19;;;;;;;6.77;5.77;;;0.60;99.90;;;;;;5012731;28;20550;-65
2021/04/07 10:33:03;;;;;;;5.82;5.15;;;0.60;99.90;;;;;;5014015;28;20562;-64
2021/04/07 10:35:31;;;;;;;8.30;5.50;;;0.70;99.90;;;;;;5014097;28;20161;-64
2021/04/07 10:38:09;;;;;;;6.28;5.57;;;0.80;99.90;;;;;;5013702;28;20173;-64
2021/04/07 10:40:37;;;;;;;6.45;5.22;;;0.80;99.90;;;;;;5014086;28;20169;-64
2021/04/07 10:43:13;;;;;;;5.30;4.85;;;0.70;99.90;;;;;;5013340;28;20553;-64
2021/04/07 10:45:39;;;;;;;4.40;4.00;;;0.80;99.90;;;;;;5013085;28;20179;-65
2021/04/07 10:48:06;;;;;;;4.55;4.20;;;0.80;99.90;;;;;;5012027;28;20544;-65
2021/04/07 10:50:33;;;;;;;6.55;4.32;;;1.10;99.90;;;;;;5011956;28;20260;-65
2021/04/07 10:53:00;;;;;;;4.50;4.30;;;1.10;99.90;;;;;;5011808;28;20220;-65
2021/04/07 10:55:28;;;;;;;4.75;4.03;;;1.10;99.90;;;;;;5012024;28;20169;-65
2021/04/07 10:57:57;;;;;;;4.20;3.67;;;1.10;99.90;;;;;;5015385;28;20200;-65
2021/04/07 11:00:25;;;;;;;4.40;4.10;;;1.10;99.90;;;;;;5015711;28;20665;-65
2021/04/07 11:02:54;;;;;;;6.32;4.30;;;1.00;99.90;;;;;;5016023;28;20180;-65
2021/04/07 11:05:26;;;;;;;4.65;4.35;;;1.00;99.90;;;;;;5015865;28;20188;-65
2021/04/07 11:08:05;;;;;;;5.78;5.25;;;1.10;99.90;;;;;;5015872;28;20247;-65
2021/04/07 11:10:57;;;;;;;4.03;3.80;;;1.10;99.90;;;;;;5015807;28;20169;-65
2021/04/07 11:13:23;;;;;;;7.97;5.00;;;1.00;99.90;;;;;;5014701;28;20213;-65
2021/04/07 11:15:49;;;;;;;6.53;4.97;;;1.00;99.90;;;;;;5015616;28;20169;-65
2021/04/07 11:18:15;;;;;;;5.90;5.40;;;1.10;99.90;;;;;;5015283;28;20173;-65
2021/04/07 11:20:43;;;;;;;7.50;5.10;;;1.20;99.90;;;;;;5015782;28;20170;-65
2021/04/07 11:23:10;;;;;;;5.53;4.97;;;1.20;99.90;;;;;;5015610;28;20415;-66
2021/04/07 11:25:36;;;;;;;6.47;5.43;;;1.20;99.90;;;;;;5015673;28;20563;-65
2021/04/07 11:28:01;;;;;;;10.70;5.50;;;1.30;99.90;;;;;;5015388;28;20172;-65
2021/04/07 11:30:31;;;;;;;7.37;6.77;;;1.30;99.90;;;;;;5015174;28;20173;-66
2021/04/07 11:32:59;;;;;;;21.58;8.25;;;1.30;99.90;;;;;;5015433;28;20193;-65
2021/04/07 11:35:43;;;;;;;7.63;6.13;;;1.30;99.90;;;;;;5015373;28;20539;-65
2021/04/07 11:38:10;;;;;;;6.30;5.63;;;1.40;99.90;;;;;;5015098;28;20219;-66
2021/04/07 11:40:59;;;;;;;5.95;5.32;;;1.50;99.90;;;;;;5015121;28;20176;-65
2021/04/07 11:43:30;;;;;;;10.07;7.05;;;1.50;99.90;;;;;;5015429;28;20197;-65
2021/04/07 11:45:55;;;;;;;23.25;16.42;;;1.60;99.90;;;;;;5015390;28;20188;-66
2021/04/07 11:48:21;;;;;;;8.90;6.10;;;1.70;99.90;;;;;;5014749;28;20205;-65
2021/04/07 11:50:47;;;;;;;8.23;5.43;;;1.70;99.90;;;;;;5015159;28;20539;-65
2021/04/07 11:53:12;;;;;;;6.27;5.67;;;1.80;99.90;;;;;;5014871;28;20247;-65
2021/04/07 11:55:39;;;;;;;5.83;5.20;;;1.80;99.90;;;;;;5014984;28;20174;-65
2021/04/07 11:58:04;;;;;;;10.05;7.00;;;1.80;99.90;;;;;;5014700;28;20705;-65
2021/04/07 12:00:30;;;;;;;5.67;4.90;;;1.80;99.90;;;;;;5014817;28;20178;-65
2021/04/07 12:02:56;;;;;;;8.27;5.80;;;1.80;99.90;;;;;;5014940;28;20173;-65
2021/04/07 12:05:25;;;;;;;6.50;5.20;;;1.70;99.90;;;;;;5014918;28;20673;-66
2021/04/07 12:07:51;;;;;;;7.30;6.72;;;1.70;99.90;;;;;;5014126;28;20653;-65
2021/04/07 12:10:17;;;;;;;7.30;5.33;;;1.80;99.90;;;;;;5014345;28;20201;-65
2021/04/07 12:12:44;;;;;;;10.40;6.68;;;1.80;99.90;;;;;;5014590;28;20549;-65
2021/04/07 12:15:10;;;;;;;12.60;5.40;;;2.00;99.90;;;;;;5014692;28;20174;-65
2021/04/07 12:17:35;;;;;;;7.80;5.28;;;1.90;99.90;;;;;;5014676;28;20171;-65
2021/04/07 12:20:02;;;;;;;8.57;6.37;;;2.00;99.90;;;;;;5014270;28;20190;-66
2021/04/07 12:22:28;;;;;;;12.18;5.78;;;2.10;99.90;;;;;;5015259;28;20698;-65
2021/04/07 12:24:53;;;;;;;9.77;5.65;;;2.10;99.90;;;;;;5015083;28;20166;-64
2021/04/07 12:27:19;;;;;;;16.83;6.73;;;2.10;99.90;;;;;;5016283;28;20181;-64
2021/04/07 12:29:45;;;;;;;11.63;6.40;;;2.20;99.90;;;;;;5014373;28;20186;-62
2021/04/07 12:32:10;;;;;;;10.00;6.30;;;2.20;99.90;;;;;;5012786;28;20197;-64
2021/04/07 12:34:36;;;;;;;8.77;6.30;;;2.30;99.90;;;;;;5014421;28;20169;-64
2021/04/07 12:37:02;;;;;;;7.13;5.40;;;2.30;99.90;;;;;;5014354;28;20170;-64
2021/04/07 12:39:28;;;;;;;10.57;7.13;;;2.40;99.90;;;;;;5014098;28;20719;-64
2021/04/07 12:41:56;;;;;;;10.63;5.53;;;2.50;99.90;;;;;;5014807;28;20261;-65
2021/04/07 12:44:22;;;;;;;9.70;5.68;;;2.50;99.90;;;;;;5014852;28;20224;-65
2021/04/07 12:46:48;;;;;;;12.25;6.85;;;2.60;99.90;;;;;;5014835;28;20634;-65
2021/04/07 12:49:14;;;;;;;7.03;5.40;;;2.80;99.90;;;;;;5014259;28;20189;-64